createdAt,value
2022-09-04T00:00:53.053Z,15.17
2022-09-04T00:01:52.942Z,15.19
2022-09-04T00:02:53.052Z,15.19
2022-09-04T00:03:53.394Z,15.23
2022-09-04T00:04:53.196Z,15.22
2022-09-04T00:05:52.911Z,15.25
2022-09-04T00:06:52.873Z,15.26
2022-09-04T00:07:52.886Z,15.26
2022-09-04T00:08:52.966Z,15.27
2022-09-04T00:09:52.866Z,15.26
2022-09-04T00:10:53.017Z,15.30
2022-09-04T00:11:52.869Z,15.30
2022-09-04T00:12:52.808Z,15.29
2022-09-04T00:13:52.867Z,15.30
2022-09-04T00:14:52.906Z,15.30
2022-09-04T00:15:52.868Z,15.30
2022-09-04T00:16:53.114Z,15.30
2022-09-04T00:17:52.898Z,15.32
2022-09-04T00:18:52.721Z,15.30
2022-09-04T00:19:52.781Z,15.30
2022-09-04T00:20:52.724Z,15.30
2022-09-04T00:21:52.671Z,15.32
2022-09-04T00:22:52.701Z,15.32
2022-09-04T00:23:52.873Z,15.30
2022-09-04T00:24:52.771Z,15.30
2022-09-04T00:25:52.612Z,15.30
2022-09-04T00:26:52.722Z,15.29
2022-09-04T00:27:52.592Z,15.27
2022-09-04T00:28:52.692Z,15.26
2022-09-04T00:29:52.631Z,15.25
2022-09-04T00:30:52.757Z,15.19
2022-09-04T00:31:52.559Z,15.17
2022-09-04T00:32:52.726Z,15.11
2022-09-04T00:33:52.547Z,15.11
2022-09-04T00:34:53.039Z,15.05
2022-09-04T00:35:52.586Z,15.00
2022-09-04T00:36:52.479Z,14.96
2022-09-04T00:37:52.556Z,14.94
2022-09-04T00:38:52.717Z,14.93
2022-09-04T00:39:52.654Z,14.92
2022-09-04T00:40:52.407Z,14.89
2022-09-04T00:41:52.442Z,14.93
2022-09-04T00:42:52.401Z,14.93
2022-09-04T00:43:52.562Z,14.92
2022-09-04T00:44:52.471Z,14.92
2022-09-04T00:45:52.656Z,14.92
2022-09-04T00:46:52.383Z,14.92
2022-09-04T00:47:52.332Z,14.87
2022-09-04T00:48:52.303Z,14.86
2022-09-04T00:49:52.291Z,14.81
2022-09-04T00:50:52.491Z,14.79
2022-09-04T00:51:52.261Z,14.78
2022-09-04T00:52:53.708Z,14.71
2022-09-04T00:53:52.277Z,14.70
2022-09-04T00:54:52.226Z,14.66
2022-09-04T00:55:52.307Z,14.62
2022-09-04T00:56:52.397Z,14.58
2022-09-04T00:57:52.218Z,14.55
2022-09-04T00:58:52.167Z,14.53
2022-09-04T00:59:52.247Z,14.52
2022-09-04T01:00:52.505Z,14.49
2022-09-04T01:01:52.333Z,14.49
2022-09-04T01:02:52.117Z,14.48
2022-09-04T01:03:52.216Z,14.45
2022-09-04T01:04:52.122Z,14.41
2022-09-04T01:05:52.322Z,14.40
2022-09-04T01:06:52.082Z,14.37
2022-09-04T01:07:52.242Z,14.37
2022-09-04T01:08:56.012Z,14.36
2022-09-04T01:09:52.033Z,14.33
2022-09-04T01:10:52.082Z,14.30
2022-09-04T01:11:52.071Z,14.26
2022-09-04T01:12:52.082Z,14.25
2022-09-04T01:13:52.243Z,14.23
2022-09-04T01:14:52.981Z,14.22
2022-09-04T01:15:51.932Z,14.20
2022-09-04T01:16:52.078Z,14.19
2022-09-04T01:17:51.946Z,14.13
2022-09-04T01:18:51.916Z,14.07
2022-09-04T01:19:51.917Z,14.04
2022-09-04T01:20:51.889Z,14.04
2022-09-04T01:21:52.239Z,14.01
2022-09-04T01:22:51.848Z,13.98
2022-09-04T01:23:51.918Z,14.00
2022-09-04T01:24:52.057Z,13.97
2022-09-04T01:25:51.896Z,13.97
2022-09-04T01:26:51.866Z,13.94
2022-09-04T01:27:51.896Z,13.91
2022-09-04T01:28:51.801Z,13.87
2022-09-04T01:29:51.934Z,13.86
2022-09-04T01:30:51.742Z,13.82
2022-09-04T01:31:51.903Z,13.82
2022-09-04T01:32:51.762Z,13.80
2022-09-04T01:33:51.903Z,13.79
2022-09-04T01:34:51.763Z,13.80
2022-09-04T01:35:51.682Z,13.83
2022-09-04T01:36:51.741Z,13.87
2022-09-04T01:37:51.971Z,13.87
2022-09-04T01:38:51.743Z,13.85
2022-09-04T01:39:51.717Z,13.83
2022-09-04T01:40:51.609Z,13.79
2022-09-04T01:41:51.631Z,13.76
2022-09-04T01:42:51.661Z,13.73
2022-09-04T01:43:51.597Z,13.71
2022-09-04T01:44:51.767Z,13.70
2022-09-04T01:45:51.622Z,13.67
2022-09-04T01:46:51.519Z,13.67
2022-09-04T01:47:51.687Z,13.68
2022-09-04T01:48:51.757Z,13.70
2022-09-04T01:49:51.596Z,13.70
2022-09-04T01:50:51.758Z,13.71
2022-09-04T01:51:51.577Z,13.71
2022-09-04T01:52:51.753Z,13.71
2022-09-04T01:53:51.542Z,13.70
2022-09-04T01:54:51.422Z,13.70
2022-09-04T01:55:51.383Z,13.68
2022-09-04T01:56:51.439Z,13.65
2022-09-04T01:57:51.605Z,13.65
2022-09-04T01:58:51.431Z,13.65
2022-09-04T01:59:53.695Z,13.64
2022-09-04T02:00:51.454Z,13.62
2022-09-04T02:01:51.647Z,13.61
2022-09-04T02:02:53.037Z,13.62
2022-09-04T02:03:51.593Z,13.61
2022-09-04T02:04:51.380Z,13.60
2022-09-04T02:05:51.298Z,13.61
2022-09-04T02:06:51.418Z,13.62
2022-09-04T02:07:51.277Z,13.61
2022-09-04T02:08:51.444Z,13.64
2022-09-04T02:09:54.040Z,13.65
2022-09-04T02:10:51.497Z,13.67
2022-09-04T02:11:51.287Z,13.67
2022-09-04T02:12:51.419Z,13.68
2022-09-04T02:13:51.278Z,13.70
2022-09-04T02:14:51.158Z,13.73
2022-09-04T02:15:51.339Z,13.73
2022-09-04T02:16:51.117Z,13.75
2022-09-04T02:17:51.122Z,13.75
2022-09-04T02:18:51.093Z,13.73
2022-09-04T02:19:51.262Z,13.73
2022-09-04T02:20:51.202Z,13.73
2022-09-04T02:21:51.282Z,13.73
2022-09-04T02:22:51.123Z,13.73
2022-09-04T02:23:51.283Z,13.73
2022-09-04T02:24:51.102Z,13.71
2022-09-04T02:25:51.275Z,13.71
2022-09-04T02:26:51.172Z,13.71
2022-09-04T02:27:50.953Z,13.71
2022-09-04T02:28:51.127Z,13.71
2022-09-04T02:29:50.972Z,13.71
2022-09-04T02:30:54.505Z,13.68
2022-09-04T02:31:51.071Z,13.71
2022-09-04T02:32:50.919Z,13.70
2022-09-04T02:33:50.888Z,13.70
2022-09-04T02:34:50.879Z,13.71
2022-09-04T02:35:50.957Z,13.73
2022-09-04T02:36:50.890Z,13.73
2022-09-04T02:37:50.948Z,13.75
2022-09-04T02:38:51.118Z,13.76
2022-09-04T02:39:50.811Z,13.76
2022-09-04T02:40:50.777Z,13.79
2022-09-04T02:41:50.860Z,13.79
2022-09-04T02:42:50.813Z,13.80
2022-09-04T02:43:50.963Z,13.82
2022-09-04T02:44:50.814Z,13.82
2022-09-04T02:45:50.933Z,13.82
2022-09-04T02:46:50.940Z,13.83
2022-09-04T02:47:50.693Z,13.85
2022-09-04T02:48:50.805Z,13.89
2022-09-04T02:49:50.642Z,13.89
2022-09-04T02:50:50.642Z,13.89
2022-09-04T02:51:50.743Z,13.89
2022-09-04T02:52:50.602Z,13.87
2022-09-04T02:53:50.647Z,13.89
2022-09-04T02:54:50.588Z,13.91
2022-09-04T02:55:50.638Z,13.89
2022-09-04T02:56:50.568Z,13.93
2022-09-04T02:57:50.700Z,13.89
2022-09-04T02:58:50.778Z,13.89
2022-09-04T02:59:50.628Z,13.93
2022-09-04T03:00:50.525Z,13.93
2022-09-04T03:01:50.625Z,13.91
2022-09-04T03:02:50.558Z,13.93
2022-09-04T03:03:50.449Z,13.89
2022-09-04T03:04:50.458Z,13.87
2022-09-04T03:05:50.649Z,13.87
2022-09-04T03:06:50.473Z,13.86
2022-09-04T03:07:50.464Z,13.89
2022-09-04T03:08:50.472Z,13.87
2022-09-04T03:09:50.623Z,13.87
2022-09-04T03:10:50.482Z,13.87
2022-09-04T03:11:50.375Z,13.87
2022-09-04T03:12:50.403Z,13.89
2022-09-04T03:13:50.303Z,13.87
2022-09-04T03:14:50.312Z,13.89
2022-09-04T03:15:50.322Z,13.89
2022-09-04T03:16:50.263Z,13.91
2022-09-04T03:17:50.408Z,13.86
2022-09-04T03:18:50.479Z,13.86
2022-09-04T03:19:50.237Z,13.86
2022-09-04T03:20:50.488Z,13.85
2022-09-04T03:21:50.298Z,13.83
2022-09-04T03:22:50.254Z,13.82
2022-09-04T03:23:50.318Z,13.80
2022-09-04T03:24:50.162Z,13.79
2022-09-04T03:25:50.299Z,13.78
2022-09-04T03:26:50.159Z,13.75
2022-09-04T03:27:50.168Z,13.73
2022-09-04T03:28:50.148Z,13.70
2022-09-04T03:29:50.324Z,13.65
2022-09-04T03:30:50.165Z,13.62
2022-09-04T03:31:50.338Z,13.62
2022-09-04T03:32:50.233Z,13.60
2022-09-04T03:33:50.041Z,13.60
2022-09-04T03:34:50.142Z,13.61
2022-09-04T03:35:50.024Z,13.60
2022-09-04T03:36:49.983Z,13.60
2022-09-04T03:37:50.072Z,13.60
2022-09-04T03:38:50.163Z,13.64
2022-09-04T03:39:50.012Z,13.65
2022-09-04T03:40:50.140Z,13.65
2022-09-04T03:41:50.019Z,13.68
2022-09-04T03:42:50.157Z,13.70
2022-09-04T03:43:49.999Z,13.75
2022-09-04T03:44:50.459Z,13.76
2022-09-04T03:45:49.999Z,13.78
2022-09-04T03:46:50.270Z,13.80
2022-09-04T03:47:50.008Z,13.79
2022-09-04T03:48:49.899Z,13.82
2022-09-04T03:49:49.999Z,13.80
2022-09-04T03:50:49.850Z,13.79
2022-09-04T03:51:49.978Z,13.78
2022-09-04T03:52:49.821Z,13.75
2022-09-04T03:53:50.088Z,13.73
2022-09-04T03:54:49.843Z,13.71
2022-09-04T03:55:49.744Z,13.70
2022-09-04T03:56:49.843Z,13.70
2022-09-04T03:57:49.993Z,13.70
2022-09-04T03:58:49.893Z,13.70
2022-09-04T03:59:49.700Z,13.71
2022-09-04T04:00:49.886Z,13.73
2022-09-04T04:01:49.673Z,13.75
2022-09-04T04:02:49.692Z,13.73
2022-09-04T04:03:49.753Z,13.67
2022-09-04T04:04:49.812Z,13.67
2022-09-04T04:05:49.715Z,13.62
2022-09-04T04:06:49.838Z,13.61
2022-09-04T04:07:49.688Z,13.58
2022-09-04T04:08:49.577Z,13.58
2022-09-04T04:09:49.748Z,13.61
2022-09-04T04:10:49.517Z,13.61
2022-09-04T04:11:49.689Z,13.62
2022-09-04T04:12:50.024Z,13.62
2022-09-04T04:13:49.468Z,13.62
2022-09-04T04:14:49.577Z,13.62
2022-09-04T04:15:49.489Z,13.62
2022-09-04T04:16:56.197Z,13.62
2022-09-04T04:17:49.429Z,13.62
2022-09-04T04:18:49.512Z,13.61
2022-09-04T04:19:49.762Z,13.57
2022-09-04T04:20:49.512Z,13.57
2022-09-04T04:21:49.372Z,13.50
2022-09-04T04:22:49.504Z,13.49
2022-09-04T04:23:49.362Z,13.47
2022-09-04T04:24:49.303Z,13.43
2022-09-04T04:25:52.241Z,13.42
2022-09-04T04:26:54.084Z,13.39
2022-09-04T04:27:49.343Z,13.39
2022-09-04T04:28:49.254Z,13.36
2022-09-04T04:29:49.353Z,13.31
2022-09-04T04:30:49.588Z,13.30
2022-09-04T04:31:49.385Z,13.27
2022-09-04T04:32:49.231Z,13.24
2022-09-04T04:33:49.189Z,13.23
2022-09-04T04:34:49.198Z,13.21
2022-09-04T04:35:49.236Z,13.19
2022-09-04T04:36:49.188Z,13.17
2022-09-04T04:37:49.149Z,13.13
2022-09-04T04:38:49.137Z,13.12
2022-09-04T04:39:49.456Z,13.11
2022-09-04T04:40:49.269Z,13.11
2022-09-04T04:41:49.078Z,13.12
2022-09-04T04:42:49.181Z,13.13
2022-09-04T04:43:49.083Z,13.13
2022-09-04T04:44:49.202Z,13.19
2022-09-04T04:45:49.033Z,13.24
2022-09-04T04:46:49.143Z,13.28
2022-09-04T04:47:49.004Z,13.36
2022-09-04T04:48:49.202Z,13.40
2022-09-04T04:49:49.024Z,13.46
2022-09-04T04:50:49.192Z,13.55
2022-09-04T04:51:49.012Z,13.60
2022-09-04T04:52:49.194Z,13.67
2022-09-04T04:53:49.046Z,13.71
2022-09-04T04:54:48.892Z,13.75
2022-09-04T04:55:49.044Z,13.79
2022-09-04T04:56:48.877Z,13.85
2022-09-04T04:57:48.918Z,13.86
2022-09-04T04:58:48.879Z,13.93
2022-09-04T04:59:48.847Z,13.97
2022-09-04T05:00:48.857Z,14.03
2022-09-04T05:01:48.954Z,14.07
2022-09-04T05:02:48.966Z,14.11
2022-09-04T05:03:49.018Z,14.12
2022-09-04T05:04:48.881Z,14.18
2022-09-04T05:05:48.748Z,14.19
2022-09-04T05:06:48.859Z,14.26
2022-09-04T05:07:48.797Z,14.31
2022-09-04T05:08:48.722Z,14.33
2022-09-04T05:09:48.713Z,14.33
2022-09-04T05:10:48.664Z,14.30
2022-09-04T05:11:48.722Z,14.28
2022-09-04T05:12:48.722Z,14.30
2022-09-04T05:13:51.604Z,14.31
2022-09-04T05:14:48.885Z,14.36
2022-09-04T05:16:07.884Z,14.48
2022-09-04T05:16:53.459Z,14.59
2022-09-04T05:17:48.721Z,14.58
2022-09-04T05:18:48.622Z,14.63
2022-09-04T05:19:50.107Z,14.92
2022-09-04T05:20:48.581Z,14.97
2022-09-04T05:21:48.547Z,15.17
2022-09-04T05:22:48.519Z,15.65
2022-09-04T05:23:48.597Z,16.08
2022-09-04T05:24:48.567Z,16.00
2022-09-04T05:25:48.487Z,15.80
2022-09-04T05:26:48.547Z,15.75
2022-09-04T05:27:48.707Z,15.80
2022-09-04T05:28:48.617Z,15.72
2022-09-04T05:29:48.447Z,15.59
2022-09-04T05:30:48.473Z,15.75
2022-09-04T05:31:48.380Z,16.74
2022-09-04T05:32:48.561Z,17.07
2022-09-04T05:33:48.483Z,17.80
2022-09-04T05:34:48.552Z,17.72
2022-09-04T05:35:48.392Z,17.31
2022-09-04T05:36:48.314Z,17.04
2022-09-04T05:37:48.384Z,16.62
2022-09-04T05:38:48.372Z,16.32
2022-09-04T05:39:48.444Z,16.05
2022-09-04T05:40:48.543Z,15.84
2022-09-04T05:41:48.402Z,15.70
2022-09-04T05:42:48.222Z,15.59
2022-09-04T05:43:48.293Z,15.57
2022-09-04T05:44:48.217Z,15.51
2022-09-04T05:45:48.207Z,15.52
2022-09-04T05:46:51.874Z,15.50
2022-09-04T05:47:48.408Z,15.50
2022-09-04T05:48:48.228Z,15.54
2022-09-04T05:49:48.448Z,15.59
2022-09-04T05:50:48.237Z,15.60
2022-09-04T05:51:48.379Z,15.66
2022-09-04T05:52:48.238Z,15.69
2022-09-04T05:53:48.117Z,15.73
2022-09-04T05:54:48.308Z,15.84
2022-09-04T05:55:48.098Z,15.98
2022-09-04T05:56:48.243Z,16.03
2022-09-04T05:57:48.082Z,16.12
2022-09-04T05:58:48.022Z,16.29
2022-09-04T05:59:48.073Z,16.44
2022-09-04T06:00:48.043Z,16.57
2022-09-04T06:01:51.822Z,16.68
2022-09-04T06:02:48.293Z,16.86
2022-09-04T06:03:48.062Z,17.01
2022-09-04T06:04:47.942Z,17.04
2022-09-04T06:05:48.002Z,17.01
2022-09-04T06:06:47.902Z,16.92
2022-09-04T06:07:47.928Z,16.86
2022-09-04T06:08:47.920Z,16.84
2022-09-04T06:09:47.888Z,16.79
2022-09-04T06:10:47.910Z,16.74
2022-09-04T06:11:48.147Z,16.66
2022-09-04T06:12:47.919Z,16.73
2022-09-04T06:13:47.828Z,16.82
2022-09-04T06:14:47.917Z,18.26
2022-09-04T06:15:47.814Z,19.85
2022-09-04T06:16:48.006Z,20.56
2022-09-04T06:17:47.769Z,21.35
2022-09-04T06:18:47.916Z,21.74
2022-09-04T06:19:47.763Z,21.59
2022-09-04T06:20:47.932Z,21.37
2022-09-04T06:21:47.732Z,20.89
2022-09-04T06:22:49.517Z,20.44
2022-09-04T06:23:47.752Z,20.02
2022-09-04T06:24:47.902Z,19.62
2022-09-04T06:25:47.732Z,19.27
2022-09-04T06:26:47.703Z,18.96
2022-09-04T06:27:47.732Z,18.73
2022-09-04T06:28:47.896Z,18.67
2022-09-04T06:29:47.742Z,18.70
2022-09-04T06:30:47.707Z,18.70
2022-09-04T06:31:47.748Z,18.70
2022-09-04T06:32:49.150Z,18.71
2022-09-04T06:33:47.746Z,18.67
2022-09-04T06:34:47.569Z,18.53
2022-09-04T06:35:47.757Z,18.36
2022-09-04T06:36:47.576Z,18.27
2022-09-04T06:37:47.808Z,18.21
2022-09-04T06:38:47.577Z,18.12
2022-09-04T06:39:47.765Z,18.13
2022-09-04T06:40:47.577Z,18.11
2022-09-04T06:41:47.462Z,18.09
2022-09-04T06:42:47.570Z,17.97
2022-09-04T06:43:47.502Z,17.78
2022-09-04T06:44:47.411Z,17.66
2022-09-04T06:45:47.362Z,17.54
2022-09-04T06:46:47.510Z,17.49
2022-09-04T06:47:47.362Z,17.44
2022-09-04T06:48:47.573Z,17.42
2022-09-04T06:49:47.373Z,17.39
2022-09-04T06:50:47.304Z,17.42
2022-09-04T06:51:47.286Z,17.47
2022-09-04T06:52:47.288Z,17.46
2022-09-04T06:53:47.287Z,17.54
2022-09-04T06:54:47.317Z,17.59
2022-09-04T06:55:47.247Z,17.65
2022-09-04T06:56:47.278Z,17.68
2022-09-04T06:57:47.208Z,17.71
2022-09-04T06:58:47.268Z,17.72
2022-09-04T06:59:47.257Z,17.73
2022-09-04T07:00:47.267Z,17.68
2022-09-04T07:01:47.271Z,17.66
2022-09-04T07:02:47.390Z,17.56
2022-09-04T07:03:47.146Z,17.53
2022-09-04T07:04:47.234Z,17.49
2022-09-04T07:05:47.123Z,17.46
2022-09-04T07:06:47.083Z,17.39
2022-09-04T07:07:47.152Z,17.31
2022-09-04T07:08:47.071Z,17.30
2022-09-04T07:09:47.093Z,17.22
2022-09-04T07:10:47.092Z,17.14
2022-09-04T07:11:47.112Z,17.05
2022-09-04T07:12:47.016Z,17.02
2022-09-04T07:13:47.092Z,17.04
2022-09-04T07:14:47.017Z,17.01
2022-09-04T07:15:47.544Z,17.01
2022-09-04T07:16:46.947Z,17.07
2022-09-04T07:17:46.958Z,17.07
2022-09-04T07:18:46.947Z,17.09
2022-09-04T07:19:47.090Z,17.13
2022-09-04T07:20:47.037Z,17.16
2022-09-04T07:21:46.879Z,17.17
2022-09-04T07:22:46.926Z,17.17
2022-09-04T07:23:46.876Z,17.17
2022-09-04T07:24:46.927Z,17.22
2022-09-04T07:25:46.844Z,17.32
2022-09-04T07:26:47.063Z,17.41
2022-09-04T07:27:46.803Z,17.56
2022-09-04T07:28:46.932Z,17.63
2022-09-04T07:29:46.792Z,17.72
2022-09-04T07:30:46.943Z,17.79
2022-09-04T07:31:46.928Z,17.91
2022-09-04T07:32:46.742Z,17.93
2022-09-04T07:33:46.772Z,18.06
2022-09-04T07:34:46.942Z,18.19
2022-09-04T07:35:46.772Z,18.34
2022-09-04T07:36:46.734Z,18.45
2022-09-04T07:37:46.789Z,18.52
2022-09-04T07:38:50.908Z,18.49
2022-09-04T07:39:46.864Z,18.46
2022-09-04T07:40:46.626Z,18.46
2022-09-04T07:41:46.876Z,18.46
2022-09-04T07:42:46.609Z,18.39
2022-09-04T07:43:49.213Z,18.30
2022-09-04T07:44:46.599Z,18.18
2022-09-04T07:45:46.833Z,18.09
2022-09-04T07:46:46.707Z,18.08
2022-09-04T07:47:46.544Z,18.18
2022-09-04T07:48:46.534Z,18.21
2022-09-04T07:49:46.782Z,18.24
2022-09-04T07:50:46.644Z,18.31
2022-09-04T07:51:46.493Z,18.58
2022-09-04T07:52:46.672Z,18.86
2022-09-04T07:53:46.472Z,19.37
2022-09-04T07:54:46.602Z,19.44
2022-09-04T07:55:46.412Z,19.47
2022-09-04T07:56:46.693Z,19.37
2022-09-04T07:57:46.462Z,19.26
2022-09-04T07:58:46.616Z,19.27
2022-09-04T07:59:46.487Z,19.20
2022-09-04T08:00:46.357Z,19.32
2022-09-04T08:01:46.536Z,19.39
2022-09-04T08:02:46.417Z,19.44
2022-09-04T08:03:53.890Z,19.49
2022-09-04T08:04:46.415Z,19.62
2022-09-04T08:05:46.298Z,20.02
2022-09-04T08:06:46.298Z,20.56
2022-09-04T08:07:46.327Z,20.70
2022-09-04T08:08:46.328Z,20.63
2022-09-04T08:09:46.487Z,20.66
2022-09-04T08:10:46.313Z,21.30
2022-09-04T08:11:46.493Z,21.50
2022-09-04T08:12:46.404Z,21.41
2022-09-04T08:13:46.204Z,21.17
2022-09-04T08:14:46.323Z,20.90
2022-09-04T08:15:46.556Z,20.73
2022-09-04T08:16:46.153Z,20.56
2022-09-04T08:17:46.153Z,20.33
2022-09-04T08:18:46.213Z,20.19
2022-09-04T08:19:46.158Z,20.08
2022-09-04T08:20:46.118Z,20.02
2022-09-04T08:21:46.148Z,19.96
2022-09-04T08:22:46.077Z,19.87
2022-09-04T08:23:46.129Z,19.87
2022-09-04T08:24:46.378Z,19.84
2022-09-04T08:25:46.137Z,19.85
2022-09-04T08:26:46.007Z,19.85
2022-09-04T08:27:46.168Z,19.87
2022-09-04T08:28:46.570Z,19.92
2022-09-04T08:29:46.207Z,19.92
2022-09-04T08:30:46.086Z,19.79
2022-09-04T08:31:45.973Z,19.71
2022-09-04T08:32:45.992Z,19.60
2022-09-04T08:33:45.956Z,19.64
2022-09-04T08:34:46.098Z,19.67
2022-09-04T08:35:46.144Z,19.63
2022-09-04T08:36:46.015Z,19.56
2022-09-04T08:37:46.144Z,19.57
2022-09-04T08:38:45.863Z,19.57
2022-09-04T08:39:45.953Z,19.56
2022-09-04T08:40:45.903Z,19.62
2022-09-04T08:41:45.838Z,19.59
2022-09-04T08:42:45.839Z,19.60
2022-09-04T08:43:45.857Z,19.39
2022-09-04T08:44:45.798Z,19.32
2022-09-04T08:45:45.921Z,19.19
2022-09-04T08:46:47.547Z,19.17
2022-09-04T08:47:45.841Z,19.17
2022-09-04T08:48:45.739Z,19.23
2022-09-04T08:49:45.829Z,19.29
2022-09-04T08:50:45.701Z,19.41
2022-09-04T08:51:45.938Z,19.53
2022-09-04T08:52:45.694Z,19.56
2022-09-04T08:53:45.672Z,19.59
2022-09-04T08:54:45.682Z,19.59
2022-09-04T08:55:45.652Z,19.64
2022-09-04T08:56:45.673Z,19.67
2022-09-04T08:57:45.913Z,19.75
2022-09-04T08:58:47.968Z,19.72
2022-09-04T08:59:45.582Z,19.59
2022-09-04T09:00:45.682Z,19.71
2022-09-04T09:01:45.919Z,19.92
2022-09-04T09:02:45.752Z,19.94
2022-09-04T09:03:45.645Z,19.96
2022-09-04T09:04:45.519Z,20.02
2022-09-04T09:05:45.529Z,20.08
2022-09-04T09:06:45.677Z,20.19
2022-09-04T09:07:45.508Z,20.29
2022-09-04T09:08:45.737Z,20.24
2022-09-04T09:09:45.507Z,20.34
2022-09-04T09:10:45.428Z,20.59
2022-09-04T09:11:45.497Z,20.67
2022-09-04T09:12:45.677Z,20.52
2022-09-04T09:13:45.585Z,20.77
2022-09-04T09:14:45.394Z,21.01
2022-09-04T09:15:45.523Z,21.13
2022-09-04T09:16:45.424Z,21.32
2022-09-04T09:17:45.346Z,21.50
2022-09-04T09:18:45.431Z,21.88
2022-09-04T09:19:45.311Z,22.28
2022-09-04T09:20:45.351Z,22.91
2022-09-04T09:21:45.286Z,23.20
2022-09-04T09:22:45.362Z,23.36
2022-09-04T09:23:45.278Z,23.33
2022-09-04T09:24:45.436Z,23.32
2022-09-04T09:25:45.227Z,23.25
2022-09-04T09:26:45.349Z,23.28
2022-09-04T09:27:45.217Z,23.44
2022-09-04T09:28:45.263Z,23.54
2022-09-04T09:29:45.256Z,23.39
2022-09-04T09:30:45.407Z,23.08
2022-09-04T09:31:45.187Z,23.11
2022-09-04T09:32:45.337Z,23.17
2022-09-04T09:33:45.193Z,23.32
2022-09-04T09:34:45.223Z,23.63
2022-09-04T09:35:45.212Z,23.73
2022-09-04T09:36:45.116Z,24.19
2022-09-04T09:37:45.172Z,24.51
2022-09-04T09:38:45.062Z,24.36
2022-09-04T09:39:45.110Z,24.24
2022-09-04T09:40:45.092Z,24.62
2022-09-04T09:41:45.183Z,25.24
2022-09-04T09:42:45.023Z,25.89
2022-09-04T09:43:45.196Z,26.33
2022-09-04T09:44:45.027Z,26.61
2022-09-04T09:45:45.117Z,26.83
2022-09-04T09:46:45.027Z,27.20
2022-09-04T09:47:44.942Z,27.41
2022-09-04T09:48:45.019Z,27.71
2022-09-04T09:49:44.910Z,28.09
2022-09-04T09:50:45.036Z,28.10
2022-09-04T09:51:44.949Z,28.38
2022-09-04T09:52:45.020Z,28.57
2022-09-04T09:53:47.234Z,28.60
2022-09-04T09:54:44.861Z,28.53
2022-09-04T09:55:44.872Z,27.81
2022-09-04T09:56:53.525Z,27.81
2022-09-04T09:57:44.862Z,27.93
2022-09-04T09:58:44.811Z,28.41
2022-09-04T09:59:44.868Z,28.70
2022-09-04T10:00:44.761Z,28.96
2022-09-04T10:01:44.912Z,28.97
2022-09-04T10:02:45.181Z,29.21
2022-09-04T10:03:44.740Z,29.39
2022-09-04T10:04:44.719Z,29.52
2022-09-04T10:05:44.700Z,29.31
2022-09-04T10:06:44.711Z,29.15
2022-09-04T10:07:44.758Z,29.07
2022-09-04T10:08:44.708Z,29.32
2022-09-04T10:09:44.648Z,29.31
2022-09-04T10:10:44.706Z,28.82
2022-09-04T10:11:44.868Z,28.52
2022-09-04T10:12:44.721Z,28.68
2022-09-04T10:13:44.671Z,28.78
2022-09-04T10:14:44.723Z,28.55
2022-09-04T10:15:44.582Z,28.46
2022-09-04T10:16:44.904Z,28.33
2022-09-04T10:17:44.559Z,28.03
2022-09-04T10:18:44.604Z,27.48
2022-09-04T10:19:44.543Z,27.48
2022-09-04T10:20:44.714Z,27.67
2022-09-04T10:21:44.556Z,28.06
2022-09-04T10:22:44.499Z,28.25
2022-09-04T10:23:44.546Z,28.50
2022-09-04T10:24:44.787Z,27.79
2022-09-04T10:25:44.539Z,27.48
2022-09-04T10:26:44.699Z,27.67
2022-09-04T10:27:44.539Z,27.41
2022-09-04T10:28:44.396Z,27.20
2022-09-04T10:29:44.471Z,27.35
2022-09-04T10:30:44.522Z,26.79
2022-09-04T10:31:44.561Z,26.97
2022-09-04T10:32:44.401Z,27.23
2022-09-04T10:33:44.542Z,27.30
2022-09-04T10:34:44.393Z,27.66
2022-09-04T10:35:44.612Z,27.97
2022-09-04T10:36:44.408Z,27.81
2022-09-04T10:37:44.531Z,27.78
2022-09-04T10:38:44.401Z,27.53
2022-09-04T10:39:44.634Z,27.43
2022-09-04T10:40:47.029Z,26.82
2022-09-04T10:41:44.256Z,27.01
2022-09-04T10:42:44.226Z,26.78
2022-09-04T10:43:44.236Z,26.92
2022-09-04T10:44:44.207Z,27.23
2022-09-04T10:45:44.347Z,27.20
2022-09-04T10:46:44.178Z,26.61
2022-09-04T10:47:44.226Z,25.91
2022-09-04T10:48:44.137Z,25.25
2022-09-04T10:49:44.136Z,25.11
2022-09-04T10:50:44.399Z,24.84
2022-09-04T10:51:44.307Z,24.78
2022-09-04T10:52:44.122Z,24.71
2022-09-04T10:53:44.082Z,24.69
2022-09-04T10:54:44.071Z,24.77
2022-09-04T10:55:44.221Z,24.71
2022-09-04T10:56:44.143Z,24.65
2022-09-04T10:57:44.232Z,24.56
2022-09-04T10:58:44.061Z,24.65
2022-09-04T10:59:44.013Z,24.68
2022-09-04T11:00:44.110Z,24.71
2022-09-04T11:01:44.296Z,24.66
2022-09-04T11:02:44.142Z,24.61
2022-09-04T11:03:43.939Z,24.51
2022-09-04T11:04:44.067Z,24.43
2022-09-04T11:05:44.216Z,24.44
2022-09-04T11:06:43.977Z,24.48
2022-09-04T11:07:43.909Z,24.58
2022-09-04T11:08:43.876Z,24.59
2022-09-04T11:09:43.906Z,24.53
2022-09-04T11:10:44.073Z,24.46
2022-09-04T11:11:43.982Z,24.46
2022-09-04T11:12:44.063Z,24.44
2022-09-04T11:13:47.002Z,24.41
2022-09-04T11:14:44.071Z,24.22
2022-09-04T11:15:43.901Z,24.13
2022-09-04T11:16:44.116Z,24.07
2022-09-04T11:17:43.822Z,24.07
2022-09-04T11:18:43.743Z,24.09
2022-09-04T11:19:43.722Z,24.13
2022-09-04T11:20:43.778Z,23.81
2022-09-04T11:21:43.909Z,23.76
2022-09-04T11:22:43.837Z,23.74
2022-09-04T11:23:43.907Z,23.67
2022-09-04T11:24:43.750Z,23.39
2022-09-04T11:25:43.648Z,23.23
2022-09-04T11:26:43.736Z,23.08
2022-09-04T11:27:43.916Z,22.88
2022-09-04T11:28:43.826Z,22.84
2022-09-04T11:29:43.590Z,22.86
2022-09-04T11:30:47.928Z,22.92
2022-09-04T11:31:43.635Z,22.93
2022-09-04T11:32:43.761Z,23.04
2022-09-04T11:33:43.592Z,23.07
2022-09-04T11:34:43.833Z,23.07
2022-09-04T11:35:43.582Z,23.16
2022-09-04T11:36:43.502Z,23.18
2022-09-04T11:37:43.591Z,23.26
2022-09-04T11:38:43.864Z,23.36
2022-09-04T11:39:43.761Z,23.40
2022-09-04T11:40:43.476Z,23.45
2022-09-04T11:41:43.588Z,23.51
2022-09-04T11:42:43.416Z,23.56
2022-09-04T11:43:43.417Z,23.62
2022-09-04T11:44:43.438Z,23.64
2022-09-04T11:45:43.699Z,23.59
2022-09-04T11:46:43.426Z,23.62
2022-09-04T11:47:43.357Z,23.58
2022-09-04T11:48:43.432Z,23.44
2022-09-04T11:49:43.337Z,23.20
2022-09-04T11:50:43.413Z,23.08
2022-09-04T11:51:43.313Z,23.11
2022-09-04T11:52:43.441Z,22.99
2022-09-04T11:53:43.272Z,22.98
2022-09-04T11:54:43.413Z,23.04
2022-09-04T11:55:43.342Z,23.08
2022-09-04T11:56:43.421Z,23.13
2022-09-04T11:57:43.272Z,23.20
2022-09-04T11:58:43.212Z,23.33
2022-09-04T11:59:43.262Z,23.29
2022-09-04T12:00:43.206Z,23.34
2022-09-04T12:01:47.501Z,23.37
2022-09-04T12:02:43.442Z,23.44
2022-09-04T12:03:43.350Z,23.55
2022-09-04T12:04:43.138Z,23.55
2022-09-04T12:05:43.118Z,23.63
2022-09-04T12:06:43.167Z,23.62
2022-09-04T12:07:43.621Z,23.64
2022-09-04T12:08:43.107Z,23.62
2022-09-04T12:09:43.273Z,23.63
2022-09-04T12:10:43.098Z,23.64
2022-09-04T12:11:43.121Z,23.63
2022-09-04T12:12:43.123Z,23.63
2022-09-04T12:13:43.003Z,23.62
2022-09-04T12:14:43.114Z,23.59
2022-09-04T12:15:43.263Z,23.59
2022-09-04T12:16:44.479Z,23.66
2022-09-04T12:17:43.023Z,23.71
2022-09-04T12:18:43.112Z,23.66
2022-09-04T12:19:42.942Z,23.64
2022-09-04T12:20:42.912Z,23.63
2022-09-04T12:21:42.949Z,23.59
2022-09-04T12:22:43.128Z,23.62
2022-09-04T12:23:42.948Z,23.54
2022-09-04T12:24:42.897Z,23.54
2022-09-04T12:25:42.958Z,23.48
2022-09-04T12:26:52.106Z,23.48
2022-09-04T12:27:43.030Z,23.52
2022-09-04T12:28:42.828Z,23.62
2022-09-04T12:29:42.787Z,23.64
2022-09-04T12:30:42.799Z,23.71
2022-09-04T12:31:42.790Z,23.71
2022-09-04T12:32:42.791Z,23.66
2022-09-04T12:33:42.824Z,23.62
2022-09-04T12:34:42.802Z,23.64
2022-09-04T12:35:42.952Z,23.64
2022-09-04T12:36:42.789Z,23.59
2022-09-04T12:37:42.942Z,23.56
2022-09-04T12:38:42.875Z,23.44
2022-09-04T12:39:42.710Z,23.47
2022-09-04T12:40:42.644Z,23.49
2022-09-04T12:41:44.858Z,23.36
2022-09-04T12:42:42.629Z,23.32
2022-09-04T12:43:42.637Z,23.13
2022-09-04T12:44:42.683Z,22.95
2022-09-04T12:45:42.710Z,22.78
2022-09-04T12:46:42.777Z,22.71
2022-09-04T12:47:42.637Z,22.81
2022-09-04T12:48:42.777Z,22.92
2022-09-04T12:49:42.617Z,23.04
2022-09-04T12:50:42.498Z,23.06
2022-09-04T12:51:42.632Z,23.10
2022-09-04T12:52:42.513Z,23.13